Time;durP1;ratioP1;P1;durP2;ratioP2;P2;SDS_P1;SDS_P2;PMS_P1;PMS_P2;Temp;Humidity;BMP_temperature;BMP_pressure;BME280_temperature;BME280_humidity;BME280_pressure;Samples;Min_cycle;Max_cycle;Signal;HPM_P1;HPM_P2
2021/06/09 00:01:40;;;;;;;5.95;0.80;;;;;;;15.80;75.94;99112.45;1793378;78;21057;-55
2021/06/09 00:04:07;;;;;;;2.50;1.00;;;;;;;15.74;75.97;99111.55;1793841;78;20903;-58
2021/06/09 00:06:33;;;;;;;1.00;0.90;;;;;;;15.68;75.91;99108.84;1796637;78;20936;-56
2021/06/09 00:09:00;;;;;;;3.83;0.88;;;;;;;15.65;76.00;99108.25;1793810;78;21487;-56
2021/06/09 00:11:26;;;;;;;2.45;1.00;;;;;;;15.59;75.86;99108.22;1789147;78;21083;-58
2021/06/09 00:13:53;;;;;;;2.52;0.90;;;;;;;15.53;75.83;99108.67;1788686;78;21066;-56
2021/06/09 00:16:20;;;;;;;2.55;0.78;;;;;;;15.49;76.02;99108.04;1792257;78;21151;-57
2021/06/09 00:18:47;;;;;;;1.45;0.80;;;;;;;15.47;75.97;99105.09;1795149;78;20974;-57
2021/06/09 00:21:14;;;;;;;2.30;0.80;;;;;;;15.44;75.86;99103.97;1791244;78;21406;-56
2021/06/09 00:23:41;;;;;;;1.25;0.80;;;;;;;15.41;75.83;99102.84;1796139;78;21076;-57
2021/06/09 00:26:08;;;;;;;2.25;0.80;;;;;;;15.38;75.89;99101.75;1765415;80;21373;-55
2021/06/09 00:28:35;;;;;;;1.55;0.90;;;;;;;15.33;76.01;99101.22;1769234;80;21056;-58
2021/06/09 00:31:03;;;;;;;2.60;0.85;;;;;;;15.28;75.99;99098.88;1768994;80;20899;-57
2021/06/09 00:33:29;;;;;;;3.42;0.82;;;;;;;15.26;75.93;99101.33;1769085;80;20978;-57
2021/06/09 00:35:57;;;;;;;3.40;1.17;;;;;;;15.21;75.88;99100.84;1760572;80;22359;-56
2021/06/09 00:38:27;;;;;;;1.98;0.80;;;;;;;15.17;75.70;99102.04;1767575;80;20946;-55
2021/06/09 00:40:56;;;;;;;3.20;0.90;;;;;;;15.10;75.46;99099.81;1748333;80;20916;-55
2021/06/09 00:43:25;;;;;;;4.22;0.82;;;;;;;15.05;75.44;99105.23;1739400;81;20960;-55
2021/06/09 00:45:57;;;;;;;1.10;0.80;;;;;;;14.99;75.54;99098.41;1738733;81;20955;-54
2021/06/09 00:48:26;;;;;;;0.70;0.70;;;;;;;14.95;75.69;99096.94;1740304;80;21063;-56
2021/06/09 00:50:54;;;;;;;3.47;1.05;;;;;;;14.94;75.87;99099.27;1738180;80;20872;-56
2021/06/09 00:53:37;;;;;;;5.85;1.20;;;;;;;14.93;75.92;99093.47;1737562;80;21987;-56
2021/06/09 00:56:09;;;;;;;1.67;0.72;;;;;;;14.93;75.90;99098.02;1768189;79;20934;-56
2021/06/09 00:58:38;;;;;;;2.35;1.15;;;;;;;14.90;75.87;99096.89;1748084;79;20911;-57
2021/06/09 01:01:05;;;;;;;0.80;0.80;;;;;;;14.87;75.91;99093.95;1751886;80;21357;-56
2021/06/09 01:03:32;;;;;;;3.40;1.00;;;;;;;14.84;75.91;99098.23;1750975;80;20918;-55
2021/06/09 01:05:59;;;;;;;1.55;1.00;;;;;;;14.81;75.90;99088.97;1748863;80;21380;-54
2021/06/09 01:08:26;;;;;;;3.25;0.90;;;;;;;14.81;75.92;99089.45;1749224;80;20946;-56
2021/06/09 01:10:52;;;;;;;4.75;0.70;;;;;;;14.76;75.81;99089.33;1749349;80;20947;-56
2021/06/09 01:13:24;;;;;;;0.88;0.88;;;;;;;14.75;75.35;99091.66;1749998;80;21476;-56
2021/06/09 01:15:50;;;;;;;4.08;0.93;;;;;;;14.70;75.28;99088.94;1750857;80;20945;-57
2021/06/09 01:18:17;;;;;;;1.12;1.02;;;;;;;14.64;75.43;99091.59;1742997;80;20901;-56
2021/06/09 01:20:44;;;;;;;4.12;1.00;;;;;;;14.58;75.39;99092.55;1746343;80;20935;-56
2021/06/09 01:23:10;;;;;;;2.22;1.35;;;;;;;14.53;75.34;99090.20;1744652;80;21073;-57
2021/06/09 01:25:37;;;;;;;6.05;0.82;;;;;;;14.46;75.29;99088.91;1750739;80;21114;-54
2021/06/09 01:28:04;;;;;;;3.67;0.70;;;;;;;14.43;75.30;99089.64;1745466;80;21089;-55
2021/06/09 01:30:32;;;;;;;5.08;0.80;;;;;;;14.39;75.34;99090.34;1772122;79;20953;-54
2021/06/09 01:32:58;;;;;;;3.70;0.80;;;;;;;14.34;75.58;99096.09;1734531;81;21019;-56
2021/06/09 01:35:24;;;;;;;5.00;1.40;;;;;;;14.34;75.58;99096.09;1749130;79;21140;-57
2021/06/09 01:37:50;;;;;;;3.12;0.80;;;;;;;14.32;75.36;99102.09;1748047;79;21128;-56
2021/06/09 01:40:20;;;;;;;13.03;1.67;;;;;;;14.30;75.45;99101.83;1767827;79;21111;-54
2021/06/09 01:42:47;;;;;;;4.45;0.95;;;;;;;14.27;75.55;99101.58;1776402;79;21416;-55
2021/06/09 01:45:17;;;;;;;1.45;0.90;;;;;;;14.25;75.54;99104.88;1776828;79;20997;-54
2021/06/09 01:47:43;;;;;;;1.22;1.00;;;;;;;14.24;75.57;99103.64;1774338;78;20914;-54
2021/06/09 01:50:11;;;;;;;2.75;0.90;;;;;;;14.21;75.62;99101.14;1778567;79;21055;-56
2021/06/09 01:52:38;;;;;;;2.05;0.90;;;;;;;14.17;75.63;99110.00;1774394;79;21156;-53
2021/06/09 01:55:06;;;;;;;4.17;0.90;;;;;;;14.14;75.61;99115.62;1776957;79;20926;-55
2021/06/09 01:57:33;;;;;;;3.15;0.82;;;;;;;14.12;75.97;99111.31;1774788;79;20902;-53
2021/06/09 02:00:01;;;;;;;9.23;1.10;;;;;;;14.10;76.17;99116.84;1779765;79;21073;-51
2021/06/09 02:02:27;;;;;;;3.77;0.80;;;;;;;14.10;76.17;99116.84;1779795;79;21749;-51
2021/06/09 02:04:53;;;;;;;5.12;0.90;;;;;;;14.11;76.12;99118.57;1774452;79;21567;-54
2021/06/09 02:07:22;;;;;;;1.30;1.20;;;;;;;14.11;75.96;99122.63;1774474;79;21047;-55
2021/06/09 02:09:48;;;;;;;1.30;1.12;;;;;;;14.11;75.98;99127.17;1771820;79;21052;-55
2021/06/09 02:12:14;;;;;;;8.23;1.10;;;;;;;14.08;76.01;99128.25;1774556;79;21116;-52
2021/06/09 02:14:41;;;;;;;3.02;1.22;;;;;;;14.07;76.16;99133.28;1775693;79;22879;-51
2021/06/09 02:17:09;;;;;;;4.20;1.05;;;;;;;14.07;76.98;99122.95;1772622;79;20894;-53
2021/06/09 02:19:36;;;;;;;5.42;2.58;;;;;;;14.07;76.98;99122.95;1776466;78;21420;-53
2021/06/09 02:22:04;;;;;;;2.70;2.47;;;;;;;14.16;77.83;99123.14;1776090;79;21503;-50
2021/06/09 02:24:30;;;;;;;2.45;1.20;;;;;;;14.16;77.83;99123.14;1774743;79;21084;-51
2021/06/09 02:26:57;;;;;;;7.05;1.10;;;;;;;14.19;77.81;99121.58;1775998;79;21151;-53
2021/06/09 02:29:23;;;;;;;4.40;1.20;;;;;;;14.20;77.64;99120.61;1774335;78;21120;-49
2021/06/09 02:31:50;;;;;;;2.12;1.72;;;;;;;14.19;77.57;99115.30;1774192;79;21061;-48
2021/06/09 02:34:22;;;;;;;1.40;1.30;;;;;;;14.18;77.68;99118.49;1779384;79;21086;-53
2021/06/09 02:36:50;;;;;;;6.47;1.20;;;;;;;14.19;77.55;99114.81;1775645;79;21191;-51
2021/06/09 02:39:18;;;;;;;2.00;1.20;;;;;;;14.20;77.44;99108.91;1777125;79;21083;-55
2021/06/09 02:41:44;;;;;;;2.80;1.20;;;;;;;14.23;77.50;99116.79;1775916;79;21446;-52
2021/06/09 02:44:11;;;;;;;2.52;1.20;;;;;;;14.23;77.56;99114.95;1767057;80;21105;-53
2021/06/09 02:46:54;;;;;;;3.33;1.20;;;;;;;14.26;77.57;99107.11;1766874;80;21097;-51
2021/06/09 02:49:23;;;;;;;1.95;1.05;;;;;;;14.30;77.82;99111.30;1769150;80;21100;-50
2021/06/09 02:52:02;;;;;;;3.42;1.10;;;;;;;14.34;78.11;99110.11;1768348;80;22674;-54
2021/06/09 02:54:42;;;;;;;2.30;1.00;;;;;;;14.38;78.12;99112.95;1766406;80;21626;-51
2021/06/09 02:57:46;;;;;;;1.20;1.00;;;;;;;14.43;78.04;99118.08;1767897;80;21050;-53
2021/06/09 03:00:17;;;;;;;5.25;1.65;;;;;;;14.45;78.21;99110.71;1768724;80;21045;-52
2021/06/09 03:03:12;;;;;;;2.30;1.82;;;;;;;14.45;78.21;99110.71;1771943;80;21410;-51
2021/06/09 03:05:43;;;;;;;1.20;1.10;;;;;;;14.48;78.53;99118.59;1769868;79;21080;-53
2021/06/09 03:08:30;;;;;;;3.87;1.90;;;;;;;14.53;78.82;99120.00;1768209;80;21043;-54
2021/06/09 03:11:26;;;;;;;3.15;1.47;;;;;;;14.58;79.09;99120.99;1770461;80;21064;-53
2021/06/09 03:16:55;;;;;;;5.60;1.22;;;;;;;14.73;79.60;99122.55;1770621;80;21126;-54
2021/06/09 03:19:25;;;;;;;2.47;1.32;;;;;;;14.80;79.68;99104.84;1767758;80;21152;-54
2021/06/09 03:22:08;;;;;;;4.15;1.10;;;;;;;14.87;79.68;99116.97;1769345;80;21081;-49
2021/06/09 03:24:38;;;;;;;2.97;1.70;;;;;;;14.95;79.86;99118.61;1769214;80;21069;-52
2021/06/09 03:27:21;;;;;;;4.22;1.90;;;;;;;15.03;79.96;99124.80;1765050;78;21426;-52
2021/06/09 03:29:51;;;;;;;3.12;2.67;;;;;;;15.10;80.37;99124.21;1686910;80;21049;-50
2021/06/09 03:32:27;;;;;;;2.98;2.67;;;;;;;15.19;80.69;99122.64;1766619;79;20981;-52
2021/06/09 03:34:59;;;;;;;3.67;3.37;;;;;;;15.28;80.81;99119.70;1765260;80;21057;-53
2021/06/09 03:37:25;;;;;;;6.87;4.15;;;;;;;15.35;81.03;99119.60;1768765;80;21531;-54
2021/06/09 03:39:56;;;;;;;10.55;5.53;;;;;;;15.43;81.16;99121.22;1768838;80;21105;-53
2021/06/09 03:42:20;;;;;;;7.53;6.08;;;;;;;15.52;81.25;99124.09;1758936;79;21056;-50
2021/06/09 03:44:51;;;;;;;6.12;5.53;;;;;;;15.61;81.23;99114.88;1759210;79;21083;-49
2021/06/09 03:47:20;;;;;;;7.87;6.42;;;;;;;15.69;81.25;99121.92;1727802;79;21060;-52
2021/06/09 03:49:47;;;;;;;6.37;5.85;;;;;;;15.77;81.22;99114.91;1755438;79;21059;-52
2021/06/09 03:52:14;;;;;;;6.17;5.45;;;;;;;15.85;81.19;99121.94;1754703;79;21111;-51
2021/06/09 03:54:44;;;;;;;5.08;4.47;;;;;;;15.95;81.05;99131.57;1756334;79;21124;-49
2021/06/09 03:57:11;;;;;;;5.75;5.22;;;;;;;16.02;80.96;99136.01;1756833;79;21702;-52
2021/06/09 03:59:37;;;;;;;5.87;4.33;;;;;;;16.10;80.84;99133.05;1758393;79;21033;-52
2021/06/09 04:02:06;;;;;;;5.35;5.05;;;;;;;16.18;80.70;99130.58;1759251;79;21005;-53
2021/06/09 04:04:33;;;;;;;5.80;5.35;;;;;;;16.27;80.62;99140.70;1753737;79;21076;-55
2021/06/09 04:06:59;;;;;;;4.70;4.50;;;;;;;16.37;80.41;99138.09;1759684;79;20965;-56
2021/06/09 04:09:25;;;;;;;6.30;5.45;;;;;;;16.45;80.27;99138.33;1760681;79;22121;-56
2021/06/09 04:12:00;;;;;;;6.67;5.83;;;;;;;16.52;80.11;99134.61;1757327;79;21507;-57
2021/06/09 04:14:35;;;;;;;4.40;4.15;;;;;;;16.58;79.97;99139.07;1735241;79;21531;-56
2021/06/09 04:17:03;;;;;;;5.87;5.40;;;;;;;16.63;79.53;99136.86;1758535;79;21042;-55
2021/06/09 04:19:29;;;;;;;5.60;4.97;;;;;;;16.68;79.53;99144.61;1760703;79;20997;-56
2021/06/09 04:21:56;;;;;;;6.35;5.95;;;;;;;16.74;79.47;99144.62;1755280;79;21210;-56
2021/06/09 04:24:22;;;;;;;5.85;4.78;;;;;;;16.81;79.52;99147.19;1760865;79;21475;-55
2021/06/09 04:26:49;;;;;;;6.17;5.12;;;;;;;16.85;79.34;99145.92;1754443;79;21547;-56
2021/06/09 04:29:15;;;;;;;5.87;5.37;;;;;;;16.90;79.01;99147.78;1759580;79;21064;-54
2021/06/09 04:31:41;;;;;;;5.42;5.03;;;;;;;16.91;78.92;99147.66;1758219;79;21086;-54
2021/06/09 04:34:08;;;;;;;4.62;4.22;;;;;;;16.95;79.22;99144.17;1758058;79;21122;-54
2021/06/09 04:36:34;;;;;;;4.10;3.90;;;;;;;17.03;79.33;99148.47;1755689;79;21132;-57
2021/06/09 04:39:01;;;;;;;5.83;4.42;;;;;;;17.12;79.24;99139.53;1755744;79;21096;-58
2021/06/09 04:41:27;;;;;;;4.53;4.22;;;;;;;17.21;79.21;99131.95;1762982;79;21299;-57
2021/06/09 04:43:53;;;;;;;4.12;3.83;;;;;;;17.29;78.93;99129.94;1771416;78;21156;-57
2021/06/09 04:46:21;;;;;;;4.85;4.58;;;;;;;17.37;78.60;99139.17;1773313;79;22610;-57
2021/06/09 04:49:02;;;;;;;4.05;3.75;;;;;;;17.42;78.45;99135.20;1776521;79;20979;-57
2021/06/09 04:51:35;;;;;;;7.25;4.35;;;;;;;17.50;78.35;99136.77;1776147;79;21069;-57
2021/06/09 04:54:06;;;;;;;5.03;4.28;;;;;;;17.57;77.89;99129.80;1775955;79;21635;-54
2021/06/09 04:56:37;;;;;;;3.70;3.47;;;;;;;17.67;77.71;99130.27;1771310;79;21115;-56
2021/06/09 04:59:05;;;;;;;3.77;3.40;;;;;;;17.75;77.72;99135.90;1771926;79;21441;-56
2021/06/09 05:01:31;;;;;;;4.25;3.67;;;;;;;17.86;77.40;99138.19;1778468;79;21578;-54
2021/06/09 05:03:59;;;;;;;3.87;3.62;;;;;;;17.93;76.65;99136.15;1774362;78;21012;-56
2021/06/09 05:06:27;;;;;;;3.98;3.67;;;;;;;18.02;76.49;99135.83;1774871;78;21080;-56
2021/06/09 05:08:54;;;;;;;5.03;3.55;;;;;;;18.10;76.44;99139.60;1775509;79;21116;-56
2021/06/09 05:11:25;;;;;;;5.05;4.67;;;;;;;18.23;76.48;99137.13;1778878;79;22606;-55
2021/06/09 05:13:52;;;;;;;5.78;5.25;;;;;;;18.35;76.14;99134.69;1771129;79;21029;-55
2021/06/09 05:16:19;;;;;;;5.40;5.03;;;;;;;18.48;75.43;99132.56;1779127;79;22401;-57
2021/06/09 05:18:46;;;;;;;3.95;3.55;;;;;;;18.53;74.77;99139.84;1776491;79;21604;-57
2021/06/09 05:21:12;;;;;;;4.03;3.70;;;;;;;18.57;75.01;99141.30;1775637;78;21315;-55
2021/06/09 05:23:40;;;;;;;3.27;3.00;;;;;;;18.64;74.61;99143.83;1773672;79;21680;-55
2021/06/09 05:26:08;;;;;;;3.87;3.50;;;;;;;18.70;74.46;99144.66;1771511;79;21500;-57
2021/06/09 05:28:39;;;;;;;3.90;3.70;;;;;;;18.78;74.41;99141.23;1769476;79;21089;-55
2021/06/09 05:31:06;;;;;;;5.22;3.27;;;;;;;18.85;73.65;99142.38;1775328;79;21492;-56
2021/06/09 05:33:32;;;;;;;3.95;3.65;;;;;;;18.93;73.30;99145.27;1772144;79;21048;-54
2021/06/09 05:35:59;;;;;;;4.40;4.10;;;;;;;19.01;73.04;99147.28;1745339;79;21172;-57
2021/06/09 05:38:25;;;;;;;4.67;4.37;;;;;;;19.06;72.44;99141.75;1772451;79;21051;-55
2021/06/09 05:40:53;;;;;;;4.08;3.87;;;;;;;19.13;72.20;99146.16;1772277;79;21177;-56
2021/06/09 05:43:21;;;;;;;3.47;3.25;;;;;;;19.20;72.29;99146.80;1769265;79;20970;-55
2021/06/09 05:45:47;;;;;;;3.35;3.10;;;;;;;19.28;72.74;99144.72;1765307;80;21511;-57
2021/06/09 05:48:14;;;;;;;3.70;3.47;;;;;;;19.38;72.58;99151.55;1767643;79;21690;-56
2021/06/09 05:50:41;;;;;;;3.77;3.45;;;;;;;19.43;71.37;99146.00;1768240;80;21626;-57
2021/06/09 05:53:07;;;;;;;4.25;3.55;;;;;;;19.48;71.49;99147.81;1771676;80;21152;-55
2021/06/09 05:55:35;;;;;;;4.30;3.90;;;;;;;19.52;71.32;99146.53;1770909;80;21440;-55
2021/06/09 05:58:05;;;;;;;3.42;3.33;;;;;;;19.55;70.72;99148.13;1769782;79;21081;-57
2021/06/09 06:00:32;;;;;;;5.12;2.90;;;;;;;19.59;70.42;99146.31;1770070;80;21062;-57
2021/06/09 06:02:58;;;;;;;4.62;3.35;;;;;;;19.63;70.53;99142.30;1769837;80;21069;-54
2021/06/09 06:05:24;;;;;;;6.62;2.65;;;;;;;19.70;71.00;99139.83;1767616;78;22410;-54
2021/06/09 06:07:52;;;;;;;3.70;3.47;;;;;;;19.77;70.83;99140.97;1771066;80;22181;-57
2021/06/09 06:10:20;;;;;;;3.77;3.50;;;;;;;19.85;70.96;99138.86;1764732;80;21484;-55
2021/06/09 06:12:49;;;;;;;3.22;3.02;;;;;;;19.95;71.03;99143.30;1768735;79;21451;-55
2021/06/09 06:15:15;;;;;;;4.15;3.80;;;;;;;20.04;70.24;99145.64;1770530;79;20997;-58
2021/06/09 06:17:44;;;;;;;3.58;3.47;;;;;;;20.09;69.98;99147.91;1772554;79;21017;-56
2021/06/09 06:20:19;;;;;;;3.33;3.12;;;;;;;20.14;70.07;99146.48;1774763;80;20907;-54
2021/06/09 06:22:48;;;;;;;2.60;2.40;;;;;;;20.19;69.72;99148.25;1767338;80;21615;-57
2021/06/09 06:25:17;;;;;;;2.65;2.20;;;;;;;20.28;69.27;99146.48;1772260;80;22443;-56
2021/06/09 06:27:45;;;;;;;2.27;2.05;;;;;;;20.32;68.93;99148.79;1766983;80;20922;-56
2021/06/09 06:30:14;;;;;;;6.40;2.05;;;;;;;20.38;68.43;99144.62;1768447;78;21045;-56
2021/06/09 06:32:41;;;;;;;2.40;2.20;;;;;;;20.46;68.05;99146.09;1768695;80;21045;-58
2021/06/09 06:35:10;;;;;;;4.12;1.80;;;;;;;20.53;67.39;99149.08;1769127;78;20977;-58
2021/06/09 06:37:36;;;;;;;1.90;1.80;;;;;;;20.58;67.50;99145.39;1750112;78;21095;-57
2021/06/09 06:40:05;;;;;;;2.55;2.10;;;;;;;20.65;66.35;99146.00;1770003;80;21492;-57
2021/06/09 06:42:32;;;;;;;2.27;1.90;;;;;;;20.70;66.45;99145.53;1754825;78;20883;-57
2021/06/09 06:45:00;;;;;;;2.30;2.08;;;;;;;20.72;66.61;99140.77;1744376;80;21063;-57
2021/06/09 06:47:27;;;;;;;2.27;1.20;;;;;;;20.77;65.81;99143.39;1744313;80;20942;-56
2021/06/09 06:49:53;;;;;;;2.47;1.32;;;;;;;20.83;66.15;99133.73;1746759;80;21080;-57
2021/06/09 06:52:20;;;;;;;3.42;1.27;;;;;;;20.89;65.60;99135.84;1742769;81;20942;-57
2021/06/09 06:54:48;;;;;;;2.05;1.20;;;;;;;20.93;65.83;99134.50;1744825;81;21035;-56
2021/06/09 06:57:15;;;;;;;1.32;1.20;;;;;;;20.97;65.34;99131.83;1745967;81;20945;-56
2021/06/09 06:59:41;;;;;;;3.95;1.50;;;;;;;21.01;64.48;99138.70;1746263;80;21077;-58
2021/06/09 07:02:07;;;;;;;2.08;1.82;;;;;;;21.04;64.50;99141.13;1741795;80;21902;-57
2021/06/09 07:04:33;;;;;;;2.02;1.45;;;;;;;21.06;63.93;99140.48;1721424;82;21520;-56
2021/06/09 07:07:00;;;;;;;2.05;1.12;;;;;;;21.10;63.94;99141.01;1723235;82;21129;-57
2021/06/09 07:09:26;;;;;;;1.47;1.10;;;;;;;21.13;64.52;99137.97;1719533;82;21464;-57
2021/06/09 07:11:53;;;;;;;1.35;1.00;;;;;;;21.17;65.01;99138.53;1726152;82;21161;-54
2021/06/09 07:14:24;;;;;;;1.92;0.90;;;;;;;21.26;65.27;99139.00;1742435;80;21079;-56
2021/06/09 07:16:50;;;;;;;1.37;1.02;;;;;;;21.31;64.96;99138.88;1727037;82;20907;-57
2021/06/09 07:19:17;;;;;;;1.95;0.90;;;;;;;21.38;64.62;99137.22;1720159;82;21089;-56
2021/06/09 07:21:43;;;;;;;1.25;1.10;;;;;;;21.47;63.80;99139.02;1721118;81;21081;-57
2021/06/09 07:24:09;;;;;;;1.72;0.90;;;;;;;21.55;62.79;99135.48;1719090;82;21046;-57
2021/06/09 07:26:40;;;;;;;4.67;1.00;;;;;;;21.58;61.38;99142.54;1721096;81;21601;-59
2021/06/09 07:29:06;;;;;;;1.72;1.20;;;;;;;21.60;61.49;99140.00;1727872;82;21038;-58
2021/06/09 07:31:36;;;;;;;1.00;0.90;;;;;;;21.63;60.88;99138.80;1763089;80;20989;-58
2021/06/09 07:34:03;;;;;;;1.00;0.90;;;;;;;21.65;60.88;99139.00;1721916;82;21244;-57
2021/06/09 07:36:51;;;;;;;1.42;1.20;;;;;;;21.72;62.14;99135.97;1674316;82;21554;-58
2021/06/09 07:39:32;;;;;;;2.22;0.90;;;;;;;21.79;61.80;99141.66;1720297;81;21497;-57
2021/06/09 07:42:11;;;;;;;1.07;0.98;;;;;;;21.85;60.54;99140.54;1724754;80;21599;-59
2021/06/09 07:44:42;;;;;;;3.58;0.90;;;;;;;21.83;59.80;99143.08;1765402;79;21125;-57
2021/06/09 07:47:10;;;;;;;2.80;1.10;;;;;;;21.80;59.84;99133.80;1767815;79;20970;-57
2021/06/09 07:49:37;;;;;;;3.27;1.30;;;;;;;21.78;60.37;99140.80;1763349;80;21085;-57
2021/06/09 07:52:06;;;;;;;2.98;1.10;;;;;;;21.79;59.64;99140.30;1763068;79;22647;-58
2021/06/09 07:54:33;;;;;;;4.05;1.10;;;;;;;21.79;59.33;99141.16;1721133;80;21051;-57
2021/06/09 07:57:01;;;;;;;2.42;0.95;;;;;;;21.79;59.55;99138.92;1763169;80;20991;-56
2021/06/09 07:59:27;;;;;;;2.35;0.88;;;;;;;21.82;59.86;99136.73;1762569;80;21093;-57
2021/06/09 08:01:53;;;;;;;1.07;0.98;;;;;;;21.88;59.96;99146.19;1764012;80;22197;-57
2021/06/09 08:04:22;;;;;;;1.12;0.90;;;;;;;21.88;58.24;99147.55;1759880;80;22257;-57
2021/06/09 08:06:49;;;;;;;2.02;1.00;;;;;;;21.92;57.96;99142.63;1766651;79;21084;-57
2021/06/09 08:09:15;;;;;;;1.07;0.98;;;;;;;21.96;58.74;99142.64;1738344;80;21088;-57
2021/06/09 08:11:43;;;;;;;2.27;1.00;;;;;;;22.01;58.74;99151.29;1765082;79;21942;-57
2021/06/09 08:14:09;;;;;;;1.30;0.80;;;;;;;22.06;58.62;99144.80;1766414;79;21336;-56
2021/06/09 08:16:39;;;;;;;1.00;0.90;;;;;;;22.07;58.44;99139.67;1764053;80;22380;-57
2021/06/09 08:19:05;;;;;;;2.40;0.88;;;;;;;22.15;58.52;99140.59;1770907;79;20923;-56
2021/06/09 08:21:32;;;;;;;2.33;0.80;;;;;;;22.21;58.44;99140.44;1764018;80;21548;-57
2021/06/09 08:23:59;;;;;;;1.62;0.80;;;;;;;22.25;57.40;99139.10;1764258;80;21764;-58
2021/06/09 08:26:26;;;;;;;0.80;0.70;;;;;;;22.31;57.61;99134.33;1764929;80;21176;-57
2021/06/09 08:28:54;;;;;;;3.30;1.00;;;;;;;22.39;57.47;99135.74;1764221;80;21157;-57
2021/06/09 08:31:29;;;;;;;1.12;0.80;;;;;;;22.47;56.07;99137.66;1764849;80;21696;-56
2021/06/09 08:33:57;;;;;;;1.25;1.00;;;;;;;22.52;56.40;99142.16;1767186;80;20902;-58
2021/06/09 08:36:24;;;;;;;1.35;0.90;;;;;;;22.57;56.64;99143.38;1764824;80;21231;-56
2021/06/09 08:38:54;;;;;;;2.65;0.90;;;;;;;22.60;55.97;99136.20;1763912;80;21113;-56
2021/06/09 08:41:21;;;;;;;2.52;1.10;;;;;;;22.62;56.14;99141.02;1766805;79;21072;-56
2021/06/09 08:43:48;;;;;;;1.92;1.00;;;;;;;22.63;54.68;99141.84;1752840;80;21030;-56
2021/06/09 08:46:17;;;;;;;1.60;0.80;;;;;;;22.67;55.47;99140.50;1742053;80;21528;-57
2021/06/09 08:48:45;;;;;;;0.98;0.72;;;;;;;22.74;56.36;99144.33;1741107;80;21507;-57
2021/06/09 08:51:33;;;;;;;1.50;1.10;;;;;;;22.85;56.74;99147.30;1741016;80;21060;-56
2021/06/09 08:54:02;;;;;;;3.62;0.90;;;;;;;22.94;55.71;99136.69;1778944;78;21148;-56
2021/06/09 08:56:29;;;;;;;0.90;0.90;;;;;;;22.98;54.67;99138.92;1773775;78;21535;-57
2021/06/09 08:58:58;;;;;;;2.12;0.82;;;;;;;23.04;54.62;99137.41;1774174;78;21391;-57
2021/06/09 09:01:25;;;;;;;1.37;0.90;;;;;;;23.11;54.24;99134.33;1776301;78;21108;-57
2021/06/09 09:03:52;;;;;;;1.65;0.60;;;;;;;23.18;53.54;99134.00;1776829;78;21307;-56
2021/06/09 09:06:20;;;;;;;0.72;0.72;;;;;;;23.19;53.65;99138.47;1777024;78;21102;-56
2021/06/09 09:08:47;;;;;;;1.00;0.75;;;;;;;23.20;53.29;99133.32;1777154;78;21555;-57
2021/06/09 09:11:13;;;;;;;1.98;0.90;;;;;;;23.23;54.14;99131.59;1778172;78;21104;-57
2021/06/09 09:13:41;;;;;;;2.00;0.80;;;;;;;23.29;53.31;99126.81;1776213;78;21114;-58
2021/06/09 09:16:08;;;;;;;0.90;0.90;;;;;;;23.37;53.96;99125.45;1780489;78;21084;-58
2021/06/09 09:19:05;;;;;;;2.10;0.80;;;;;;;23.45;51.50;99116.36;1780555;78;21077;-58
2021/06/09 09:21:41;;;;;;;1.87;0.70;;;;;;;23.47;51.67;99115.67;1777858;78;21022;-57
2021/06/09 09:24:12;;;;;;;1.17;0.65;;;;;;;23.53;51.83;99112.27;1779370;78;21115;-58
2021/06/09 09:26:42;;;;;;;1.92;0.60;;;;;;;23.58;52.03;99111.22;1781019;78;21089;-57
2021/06/09 09:29:24;;;;;;;2.35;0.60;;;;;;;23.66;51.40;99105.73;1782094;78;21531;-57
2021/06/09 09:31:58;;;;;;;1.50;0.60;;;;;;;23.75;51.12;99106.58;1775877;78;21607;-56
2021/06/09 09:34:47;;;;;;;0.88;0.70;;;;;;;23.82;50.04;99104.84;1754390;79;21203;-59
2021/06/09 09:37:15;;;;;;;0.80;0.60;;;;;;;23.86;50.47;99106.75;1736387;80;21067;-58
2021/06/09 09:39:46;;;;;;;1.32;0.82;;;;;;;23.93;50.52;99098.14;1773816;78;20883;-58
2021/06/09 09:42:25;;;;;;;1.10;0.80;;;;;;;23.97;48.69;99092.13;1778782;78;21460;-55
2021/06/09 09:44:52;;;;;;;0.60;0.55;;;;;;;23.90;49.08;99095.25;1781050;79;21334;-59
2021/06/09 09:47:23;;;;;;;1.62;0.60;;;;;;;23.81;49.33;99089.42;1773474;79;21222;-56
2021/06/09 09:49:51;;;;;;;1.52;0.70;;;;;;;23.72;48.93;99087.71;1780217;79;20914;-56
2021/06/09 09:52:17;;;;;;;0.78;0.60;;;;;;;23.64;48.95;99087.72;1781563;78;20866;-57
2021/06/09 09:54:45;;;;;;;1.70;0.60;;;;;;;23.61;49.10;99082.56;1781600;78;20973;-58
2021/06/09 09:57:13;;;;;;;0.72;0.70;;;;;;;23.61;49.51;99078.44;1780806;78;22040;-57
2021/06/09 10:01:53;;;;;;;0.70;0.70;;;;;;;23.75;49.02;99076.35;1790589;77;22549;-56
2021/06/09 10:04:28;;;;;;;0.82;0.50;;;;;;;23.79;50.01;99074.13;1708047;81;21567;-56
2021/06/09 10:06:56;;;;;;;1.67;0.60;;;;;;;23.83;48.48;99074.96;1698836;81;21131;-57
2021/06/09 10:09:26;;;;;;;1.15;0.53;;;;;;;23.86;48.17;99072.39;1740801;80;20946;-59
2021/06/09 10:11:59;;;;;;;1.17;0.50;;;;;;;23.87;47.84;99071.36;1735305;80;20973;-60
2021/06/09 10:14:29;;;;;;;0.63;0.50;;;;;;;23.91;47.34;99078.20;1732728;80;20879;-58
2021/06/09 10:17:05;;;;;;;0.60;0.60;;;;;;;23.92;47.28;99074.43;1737207;80;21057;-58
2021/06/09 10:19:38;;;;;;;0.50;0.40;;;;;;;23.95;46.94;99068.08;1739123;80;23467;-58
2021/06/09 10:22:19;;;;;;;0.53;0.50;;;;;;;23.96;46.64;99057.43;1738034;80;21678;-56
2021/06/09 10:24:48;;;;;;;0.50;0.50;;;;;;;24.02;47.71;99055.34;1732495;80;21168;-57
2021/06/09 10:27:16;;;;;;;1.25;0.47;;;;;;;24.05;45.09;99055.00;1735085;80;20942;-56
2021/06/09 10:29:42;;;;;;;1.02;0.50;;;;;;;24.08;45.90;99057.38;1742003;80;20974;-56
2021/06/09 10:32:16;;;;;;;0.50;0.50;;;;;;;24.14;45.87;99053.94;1703034;81;21001;-56
2021/06/09 10:34:42;;;;;;;1.10;0.50;;;;;;;24.25;46.24;99047.21;1710854;81;21045;-58
2021/06/09 10:37:09;;;;;;;0.50;0.50;;;;;;;24.39;46.07;99046.48;1700964;81;21064;-57
2021/06/09 10:39:38;;;;;;;0.50;0.50;;;;;;;24.54;45.86;99043.83;1734406;80;21104;-56
2021/06/09 10:42:14;;;;;;;0.40;0.40;;;;;;;24.64;43.01;99044.47;1713451;81;21085;-56
2021/06/09 10:44:45;;;;;;;0.65;0.50;;;;;;;24.68;42.46;99046.31;1705607;80;21528;-56
2021/06/09 10:47:21;;;;;;;0.57;0.50;;;;;;;24.66;42.83;99039.64;1705347;80;21084;-55
2021/06/09 10:49:48;;;;;;;0.93;0.40;;;;;;;24.69;43.10;99042.53;1709669;80;21013;-56
2021/06/09 10:52:14;;;;;;;0.70;0.40;;;;;;;24.73;43.71;99031.52;1709064;80;21060;-57
2021/06/09 10:54:41;;;;;;;0.65;0.60;;;;;;;24.80;44.42;99032.50;1708580;80;21188;-57
2021/06/09 10:57:08;;;;;;;0.60;0.50;;;;;;;24.86;44.70;99032.63;1706976;80;22910;-58
2021/06/09 10:59:35;;;;;;;3.10;0.50;;;;;;;24.87;45.30;99030.20;1710259;80;21454;-55
2021/06/09 11:02:05;;;;;;;1.07;0.60;;;;;;;24.94;45.37;99026.75;1696509;80;22244;-57
2021/06/09 11:04:37;;;;;;;0.57;0.57;;;;;;;24.93;44.86;99027.78;1693841;81;21079;-56
2021/06/09 11:07:06;;;;;;;0.50;0.50;;;;;;;24.88;44.96;99027.80;1755088;79;21020;-58
2021/06/09 11:09:34;;;;;;;1.65;0.65;;;;;;;24.75;45.90;99030.27;1752976;79;21101;-57
2021/06/09 11:12:17;;;;;;;0.53;0.50;;;;;;;24.70;46.82;99036.85;1752185;79;21029;-57
2021/06/09 11:15:00;;;;;;;2.87;0.68;;;;;;;24.61;47.76;99042.58;1757107;79;20941;-58
2021/06/09 11:17:42;;;;;;;0.57;0.50;;;;;;;24.48;49.49;99057.79;1748550;79;21065;-57
2021/06/09 11:20:34;;;;;;;1.52;0.60;;;;;;;24.30;48.82;99057.17;1750945;79;21352;-56
2021/06/09 11:23:06;;;;;;;1.05;0.70;;;;;;;24.13;48.23;99061.84;1754182;79;21110;-57
2021/06/09 11:25:40;;;;;;;1.37;0.60;;;;;;;23.95;49.27;99054.34;1751014;79;21093;-58
2021/06/09 11:28:18;;;;;;;1.55;0.45;;;;;;;23.68;48.26;99051.98;1754240;79;20875;-56
2021/06/09 11:30:51;;;;;;;1.12;0.50;;;;;;;23.39;49.46;99047.02;1751768;79;20987;-56
2021/06/09 11:33:47;;;;;;;2.45;0.50;;;;;;;23.13;50.23;99045.81;1747954;79;21092;-58
2021/06/09 11:36:25;;;;;;;0.85;0.60;;;;;;;23.00;50.33;99032.58;1745116;79;21045;-59
2021/06/09 11:38:54;;;;;;;1.22;0.50;;;;;;;22.92;49.83;99029.83;1747932;79;21092;-57
2021/06/09 11:41:23;;;;;;;3.55;0.40;;;;;;;22.85;50.56;99016.45;1753789;79;21667;-57
2021/06/09 11:43:52;;;;;;;3.75;0.60;;;;;;;22.85;50.61;99020.56;1750126;79;21112;-58
2021/06/09 11:46:23;;;;;;;1.72;0.50;;;;;;;22.89;50.41;99020.55;1755204;79;20899;-59
2021/06/09 11:49:07;;;;;;;3.70;0.45;;;;;;;22.89;49.83;99008.72;1751913;79;21287;-58
2021/06/09 11:51:40;;;;;;;0.60;0.50;;;;;;;22.90;49.34;99006.31;1750490;79;21049;-56